createdAt,value
2014-07-28T00:00:09.549Z,99537
2014-07-28T00:00:27.784Z,99528
2014-07-28T00:00:46.098Z,99531
2014-07-28T00:01:04.333Z,99525
2014-07-28T00:01:22.551Z,99531
2014-07-28T00:01:40.788Z,99534
2014-07-28T00:01:59.053Z,99534
2014-07-28T00:02:17.257Z,99525
2014-07-28T00:02:35.539Z,99520
2014-07-28T00:02:53.758Z,99534
2014-07-28T00:03:11.961Z,99525
2014-07-28T00:03:30.181Z,99531
2014-07-28T00:03:48.416Z,99540
2014-07-28T00:04:06.650Z,99531
2014-07-28T00:04:24.853Z,99531
2014-07-28T00:04:43.090Z,99531
2014-07-28T00:05:01.324Z,99531
2014-07-28T00:05:19.543Z,99534
2014-07-28T00:05:37.779Z,99534
2014-07-28T00:05:55.982Z,99525
2014-07-28T00:06:14.232Z,99546
2014-07-28T00:06:32.422Z,99534
2014-07-28T00:06:50.656Z,99531
2014-07-28T00:07:08.891Z,99534
2014-07-28T00:07:27.141Z,99543
2014-07-28T00:07:45.377Z,99534
2014-07-28T00:08:03.580Z,99531
2014-07-28T00:08:22.361Z,99534
2014-07-28T00:08:40.599Z,99525
2014-07-28T00:08:58.833Z,99528
2014-07-28T00:09:17.036Z,99534
2014-07-28T00:09:35.255Z,99531
2014-07-28T00:09:53.522Z,99528
2014-07-28T00:10:11.756Z,99531
2014-07-28T00:10:29.990Z,99528
2014-07-28T00:10:48.196Z,99525
2014-07-28T00:11:06.431Z,99528
2014-07-28T00:11:24.665Z,99522
2014-07-28T00:11:42.853Z,99525
2014-07-28T00:12:01.089Z,99528
2014-07-28T00:12:19.323Z,99528
2014-07-28T00:12:37.542Z,99534
2014-07-28T00:12:55.762Z,99522
2014-07-28T00:13:13.996Z,99528
2014-07-28T00:13:32.231Z,99525
2014-07-28T00:13:50.481Z,99528
2014-07-28T00:14:08.952Z,99528
2014-07-28T00:14:27.187Z,99528
2014-07-28T00:14:45.421Z,99531
2014-07-28T00:15:03.626Z,99522
2014-07-28T00:15:21.829Z,99534
2014-07-28T00:15:40.095Z,99537
2014-07-28T00:15:58.314Z,99540
2014-07-28T00:16:16.613Z,99537
2014-07-28T00:16:34.988Z,99540
2014-07-28T00:16:53.191Z,99528
2014-07-28T00:17:11.412Z,99540
2014-07-28T00:17:29.802Z,99525
2014-07-28T00:17:48.037Z,99540
2014-07-28T00:18:06.255Z,99537
2014-07-28T00:18:24.491Z,99537
2014-07-28T00:18:42.725Z,99543
2014-07-28T00:19:00.975Z,99537
2014-07-28T00:19:19.337Z,99540
2014-07-28T00:19:37.572Z,99540
2014-07-28T00:19:55.806Z,99537
2014-07-28T00:20:14.009Z,99537
2014-07-28T00:20:32.277Z,99543
2014-07-28T00:20:50.480Z,99537
2014-07-28T00:21:08.714Z,99531
2014-07-28T00:21:27.123Z,99525
2014-07-28T00:21:45.341Z,99534
2014-07-28T00:22:03.560Z,99531
2014-07-28T00:22:21.779Z,99543
2014-07-28T00:22:40.000Z,99531
2014-07-28T00:22:58.250Z,99531
2014-07-28T00:23:16.468Z,99528
2014-07-28T00:23:34.705Z,99534
2014-07-28T00:23:52.924Z,99537
2014-07-28T00:24:11.127Z,99534
2014-07-28T00:24:29.347Z,99543
2014-07-28T00:24:47.582Z,99528
2014-07-28T00:25:05.879Z,99546
2014-07-28T00:25:24.097Z,99523
2014-07-28T00:25:42.334Z,99531
2014-07-28T00:26:00.537Z,99528
2014-07-28T00:26:18.756Z,99528
2014-07-28T00:26:37.023Z,99534
2014-07-28T00:26:55.258Z,99531
2014-07-28T00:27:13.476Z,99531
2014-07-28T00:27:31.837Z,99523
2014-07-28T00:27:50.071Z,99525
2014-07-28T00:28:08.274Z,99525
2014-07-28T00:28:26.524Z,99531
2014-07-28T00:28:44.761Z,99534
2014-07-28T00:29:02.979Z,99540
2014-07-28T00:29:21.370Z,99525
2014-07-28T00:29:39.575Z,99523
2014-07-28T00:29:57.841Z,99528
2014-07-28T00:30:16.060Z,99540
2014-07-28T00:30:48.453Z,99534
2014-07-28T00:31:06.641Z,99534
2014-07-28T00:31:57.267Z,99528
2014-07-28T00:32:15.501Z,99531
2014-07-28T00:32:33.720Z,99534
2014-07-28T00:32:51.957Z,99525
2014-07-28T00:33:10.176Z,99525
2014-07-28T00:33:28.426Z,99534
2014-07-28T00:33:46.631Z,99525
2014-07-28T00:34:04.881Z,99525
2014-07-28T00:34:23.084Z,99523
2014-07-28T00:34:41.334Z,99537
2014-07-28T00:34:59.585Z,99537
2014-07-28T00:35:17.773Z,99525
2014-07-28T00:35:36.007Z,99523
2014-07-28T00:35:54.229Z,99528
2014-07-28T00:36:12.651Z,99523
2014-07-28T00:36:30.869Z,99523
2014-07-28T00:36:49.073Z,99528
2014-07-28T00:37:07.308Z,99531
2014-07-28T00:37:25.542Z,99520
2014-07-28T00:37:43.745Z,99528
2014-07-28T00:38:01.951Z,99528
2014-07-28T00:38:20.216Z,99525
2014-07-28T00:38:38.435Z,99520
2014-07-28T00:38:56.669Z,99528
2014-07-28T00:39:14.874Z,99528
2014-07-28T00:39:33.218Z,99528
2014-07-28T00:39:51.437Z,99531
2014-07-28T00:40:09.659Z,99525
2014-07-28T00:40:27.877Z,99523
2014-07-28T00:40:46.159Z,99525
2014-07-28T00:41:04.393Z,99523
2014-07-28T00:41:36.770Z,99528
2014-07-28T00:41:54.989Z,99520
2014-07-28T00:42:13.223Z,99525
2014-07-28T00:42:46.522Z,99528
2014-07-28T00:43:04.741Z,99523
2014-07-28T00:43:22.975Z,99523
2014-07-28T00:43:41.212Z,99523
2014-07-28T00:43:59.462Z,99523
2014-07-28T00:44:17.696Z,99525
2014-07-28T00:44:35.948Z,99517
2014-07-28T00:44:54.292Z,99520
2014-07-28T00:45:12.526Z,99528
2014-07-28T00:45:30.762Z,99517
2014-07-28T00:45:48.981Z,99525
2014-07-28T00:46:07.200Z,99523
2014-07-28T00:46:25.419Z,99520
2014-07-28T00:46:43.796Z,99523
2014-07-28T00:47:02.014Z,99520
2014-07-28T00:47:20.233Z,99523
2014-07-28T00:47:38.470Z,99520
2014-07-28T00:47:56.688Z,99520
2014-07-28T00:48:14.907Z,99520
2014-07-28T00:48:33.143Z,99520
2014-07-28T00:48:51.393Z,99511
2014-07-28T00:49:09.581Z,99525
2014-07-28T00:49:27.800Z,99523
2014-07-28T00:49:46.052Z,99523
2014-07-28T00:50:04.286Z,99520
2014-07-28T00:50:22.489Z,99508
2014-07-28T00:50:40.710Z,99520
2014-07-28T00:50:58.960Z,99517
2014-07-28T00:51:17.194Z,99525
2014-07-28T00:51:35.399Z,99514
2014-07-28T00:51:53.634Z,99514
2014-07-28T00:52:11.868Z,99514
2014-07-28T00:52:30.088Z,99511
2014-07-28T00:52:48.307Z,99517
2014-07-28T00:53:06.541Z,99511
2014-07-28T00:53:24.775Z,99517
2014-07-28T00:53:42.996Z,99508
2014-07-28T00:54:01.199Z,99511
2014-07-28T00:54:19.434Z,99511
2014-07-28T00:54:37.842Z,99517
2014-07-28T00:54:56.076Z,99517
2014-07-28T00:55:14.279Z,99514
2014-07-28T00:55:32.516Z,99502
2014-07-28T00:55:50.813Z,99514
2014-07-28T00:56:09.047Z,99511
2014-07-28T00:56:27.235Z,99514
2014-07-28T00:56:45.471Z,99517
2014-07-28T00:57:03.705Z,99508
2014-07-28T00:57:21.940Z,99508
2014-07-28T00:57:40.160Z,99508
2014-07-28T00:57:58.395Z,99511
2014-07-28T00:58:16.645Z,99511
2014-07-28T00:58:34.881Z,99511
2014-07-28T00:58:53.100Z,99511
2014-07-28T00:59:11.319Z,99511
2014-07-28T00:59:29.634Z,99514
2014-07-28T00:59:47.853Z,99508
2014-07-28T01:00:06.040Z,99508
2014-07-28T01:00:24.275Z,99517
2014-07-28T01:00:42.666Z,99508
2014-07-28T01:01:00.885Z,99517
2014-07-28T01:01:19.135Z,99508
2014-07-28T01:01:37.325Z,99514
2014-07-28T01:01:55.590Z,99517
2014-07-28T01:02:13.825Z,99502
2014-07-28T01:02:32.030Z,99517
2014-07-28T01:02:50.249Z,99511
2014-07-28T01:03:08.467Z,99505
2014-07-28T01:03:26.702Z,99508
2014-07-28T01:03:44.938Z,99508
2014-07-28T01:04:03.157Z,99502
2014-07-28T01:04:21.360Z,99499
2014-07-28T05:21:39.854Z,99414
2014-07-28T05:21:58.089Z,99422
2014-07-28T05:22:16.292Z,99414
2014-07-28T05:22:34.574Z,99422
2014-07-28T05:22:52.827Z,99405
2014-07-28T05:23:11.155Z,99414
2014-07-28T05:23:29.358Z,99414
2014-07-28T05:23:47.593Z,99414
2014-07-28T05:24:05.828Z,99414
2014-07-28T05:24:24.062Z,99419
2014-07-28T05:24:42.250Z,99414
2014-07-28T05:25:00.471Z,99408
2014-07-28T05:25:18.706Z,99419
2014-07-28T05:25:36.940Z,99414
2014-07-28T05:25:55.160Z,99414
2014-07-28T05:26:13.972Z,99411
2014-07-28T05:26:32.691Z,99417
2014-07-28T05:26:51.194Z,99419
2014-07-28T05:27:09.725Z,99417
2014-07-28T05:27:28.835Z,99408
2014-07-28T05:27:47.507Z,99411
2014-07-28T05:28:06.148Z,99402
2014-07-28T05:28:25.758Z,99417
2014-07-28T05:28:44.195Z,99419
2014-07-28T05:29:02.541Z,99411
2014-07-28T05:29:21.775Z,99411
2014-07-28T05:29:41.494Z,99405
2014-07-28T05:30:00.746Z,99408
2014-07-28T05:30:19.105Z,99402
2014-07-28T05:30:37.590Z,99399
2014-07-28T05:30:56.670Z,99405
2014-07-28T05:31:48.154Z,99405
2014-07-28T05:32:06.687Z,99411
2014-07-28T05:32:40.047Z,99399
2014-07-28T05:32:59.064Z,99399
2014-07-28T05:33:17.799Z,99393
2014-07-28T05:33:36.393Z,99402
2014-07-28T05:34:09.941Z,99396
2014-07-28T05:34:29.332Z,99405
2014-07-28T05:34:51.941Z,99390
2014-07-28T05:35:14.225Z,99396
2014-07-28T05:35:49.225Z,99402
2014-07-28T05:36:12.352Z,99402
2014-07-28T05:37:13.291Z,99399
2014-07-28T05:37:36.291Z,99385
2014-07-28T05:37:58.934Z,99399
2014-07-28T05:38:34.918Z,99396
2014-07-28T05:38:57.449Z,99385
2014-07-28T05:39:56.185Z,99385
2014-07-28T05:40:18.875Z,99399
2014-07-28T05:40:44.688Z,99390
2014-07-28T05:41:10.048Z,99390
2014-07-28T05:41:32.611Z,99388
2014-07-28T05:41:57.861Z,99385
2014-07-28T05:42:23.614Z,99393
2014-07-28T05:42:46.614Z,99390
2014-07-28T05:43:09.631Z,99402
2014-07-28T05:43:32.209Z,99402
2014-07-28T05:43:58.022Z,99388
2014-07-28T05:44:20.461Z,99387
2014-07-28T05:44:43.399Z,99382
2014-07-28T05:45:05.977Z,99387
2014-07-28T05:45:28.525Z,99387
2014-07-28T05:45:51.166Z,99387
2014-07-28T05:46:17.261Z,99390
2014-07-28T05:46:53.168Z,99390
2014-07-28T05:47:15.873Z,99396
2014-07-28T05:47:37.841Z,99387
2014-07-28T05:48:00.357Z,99402
2014-07-28T05:48:36.922Z,99390
2014-07-28T05:49:11.953Z,99402
2014-07-28T05:49:30.955Z,99396
2014-07-28T05:49:50.845Z,99396
2014-07-28T05:50:09.283Z,99402
2014-07-28T05:50:28.597Z,99390
2014-07-28T05:50:47.066Z,99399
2014-07-28T05:51:06.113Z,99402
2014-07-28T05:51:24.913Z,99405
2014-07-28T05:51:43.944Z,99393
2014-07-28T05:52:02.585Z,99396
2014-07-28T05:52:21.056Z,99402
2014-07-28T05:52:39.977Z,99405
2014-07-28T05:52:58.696Z,99399
2014-07-28T05:53:17.696Z,99399
2014-07-28T05:53:36.042Z,99396
2014-07-28T05:53:54.558Z,99388
2014-07-28T05:54:13.573Z,99402
2014-07-28T05:54:31.793Z,99388
2014-07-28T05:54:50.059Z,99399
2014-07-28T05:55:08.730Z,99390
2014-07-28T05:55:26.998Z,99393
2014-07-28T05:55:45.232Z,99393
2014-07-28T05:56:03.436Z,99393
2014-07-28T05:56:21.686Z,99405
2014-07-28T05:56:40.016Z,99396
2014-07-28T05:56:58.625Z,99399
2014-07-28T05:57:16.859Z,99396
2014-07-28T05:57:35.144Z,99399
2014-07-28T05:57:53.394Z,99399
2014-07-28T05:58:11.612Z,99399
2014-07-28T05:58:29.879Z,99402
2014-07-28T05:58:48.551Z,99393
2014-07-28T05:59:06.817Z,99393
2014-07-28T05:59:25.035Z,99405
2014-07-28T05:59:43.397Z,99402
2014-07-28T06:00:02.006Z,99402
2014-07-28T06:00:20.240Z,99405
2014-07-28T06:00:38.492Z,99396
2014-07-28T06:00:56.696Z,99396
2014-07-28T06:01:14.961Z,99402
2014-07-28T06:01:33.307Z,99399
2014-07-28T06:01:51.932Z,99414
2014-07-28T06:02:10.213Z,99408
2014-07-28T06:02:28.463Z,99405
2014-07-28T06:02:46.700Z,99408
2014-07-28T06:03:04.918Z,99411
2014-07-28T06:03:23.450Z,99408
2014-07-28T06:03:41.795Z,99408
2014-07-28T06:04:00.030Z,99402
2014-07-28T06:04:18.248Z,99402
2014-07-28T06:04:36.467Z,99402
2014-07-28T06:04:54.719Z,99408
2014-07-28T06:05:12.969Z,99402
2014-07-28T06:05:31.532Z,99419
2014-07-28T06:05:49.721Z,99399
2014-07-28T06:06:07.987Z,99405
2014-07-28T06:06:26.190Z,99405
2014-07-28T06:06:44.426Z,99405
2014-07-28T06:07:02.676Z,99414
2014-07-28T06:07:20.942Z,99411
2014-07-28T06:07:39.536Z,99414
2014-07-28T06:07:57.741Z,99408
2014-07-28T06:08:15.975Z,99414
2014-07-28T06:08:34.256Z,99417
2014-07-28T06:08:52.882Z,99416
2014-07-28T06:09:11.101Z,99411
2014-07-28T06:09:29.336Z,99408
2014-07-28T06:09:47.603Z,99408
2014-07-28T06:10:05.838Z,99408
2014-07-28T06:10:24.056Z,99408
2014-07-28T06:10:42.603Z,99414
2014-07-28T06:11:00.872Z,99414
2014-07-28T06:11:19.137Z,99411
2014-07-28T06:11:37.341Z,99419
2014-07-28T06:11:55.593Z,99405
2014-07-28T06:12:13.827Z,99417
2014-07-28T06:12:32.093Z,99417
2014-07-28T06:12:50.718Z,99408
2014-07-28T06:13:08.937Z,99414
2014-07-28T06:13:27.140Z,99419
2014-07-28T06:13:45.359Z,99411
2014-07-28T06:14:03.597Z,99414
2014-07-28T06:14:21.847Z,99411
2014-07-28T06:14:40.300Z,99417
2014-07-28T06:14:58.659Z,99417
2014-07-28T06:15:16.911Z,99411
2014-07-28T06:15:35.145Z,99414
2014-07-28T06:15:53.364Z,99417
2014-07-28T06:16:11.585Z,99419
2014-07-28T06:16:29.819Z,99414
2014-07-28T06:16:48.069Z,99411
2014-07-28T06:17:06.274Z,99411
2014-07-28T06:17:38.665Z,99417
2014-07-28T06:17:56.915Z,99417
2014-07-28T06:18:15.150Z,99414
2014-07-28T06:18:33.385Z,99405
2014-07-28T06:18:51.588Z,99396
2014-07-28T06:19:09.857Z,99419
2014-07-28T06:19:28.060Z,99405
2014-07-28T06:19:46.325Z,99399
2014-07-28T06:20:04.546Z,99399
2014-07-28T06:20:22.780Z,99405
2014-07-28T06:20:41.062Z,99414
2014-07-28T06:20:59.296Z,99411
2014-07-28T06:21:17.548Z,99417
2014-07-28T06:21:35.767Z,99417
2014-07-28T06:21:54.032Z,99405
2014-07-28T06:22:12.252Z,99405
2014-07-28T06:22:30.471Z,99417
2014-07-28T06:22:48.690Z,99414
2014-07-28T06:23:06.942Z,99408
2014-07-28T06:23:25.223Z,99402
2014-07-28T06:23:43.426Z,99405
2014-07-28T06:24:01.660Z,99402
2014-07-28T06:24:19.912Z,99408
2014-07-28T06:24:38.147Z,99402
2014-07-28T06:24:56.334Z,99417
2014-07-28T06:25:14.587Z,99402
2014-07-28T06:25:32.837Z,99405
2014-07-28T06:25:51.087Z,99405
2014-07-28T06:26:09.306Z,99399
2014-07-28T06:26:27.527Z,99402
2014-07-28T06:26:45.761Z,99399
2014-07-28T06:27:04.011Z,99411
2014-07-28T06:27:22.325Z,99396
2014-07-28T06:27:40.543Z,99405
2014-07-28T06:27:58.793Z,99411
2014-07-28T06:28:17.028Z,99408
2014-07-28T06:28:35.234Z,99405
2014-07-28T06:28:53.468Z,99399
2014-07-28T06:29:11.718Z,99390
2014-07-28T06:29:29.938Z,99399
2014-07-28T06:29:48.204Z,99396
2014-07-28T06:30:06.438Z,99390
2014-07-28T06:30:24.643Z,99393
2014-07-28T06:30:42.862Z,99402
2014-07-28T06:31:01.096Z,99402
2014-07-28T06:31:19.331Z,99405
2014-07-28T06:31:37.552Z,99402
2014-07-28T06:31:55.771Z,99405
2014-07-28T06:32:14.146Z,99393
2014-07-28T06:32:32.397Z,99402
2014-07-28T06:32:50.600Z,99405
2014-07-28T06:33:08.866Z,99402
2014-07-28T06:33:27.102Z,99402
2014-07-28T06:33:45.321Z,99399
2014-07-28T06:34:03.743Z,99399
2014-07-28T06:34:21.946Z,99408
2014-07-28T06:34:40.198Z,99399
2014-07-28T06:34:58.417Z,99396
2014-07-28T06:35:16.651Z,99396
2014-07-28T06:35:34.856Z,99402
2014-07-28T06:35:53.122Z,99402
2014-07-28T06:36:11.356Z,99399
2014-07-28T06:36:29.575Z,99396
2014-07-28T06:36:47.811Z,99396
2014-07-28T06:37:06.140Z,99399
2014-07-28T06:37:24.405Z,99393
2014-07-28T06:37:42.626Z,99393
2014-07-28T06:38:00.876Z,99402
2014-07-28T06:38:19.095Z,99402
2014-07-28T06:38:37.472Z,99396
2014-07-28T06:38:55.690Z,99390
2014-07-28T06:39:13.925Z,99396
2014-07-28T06:39:32.191Z,99393
2014-07-28T06:39:50.395Z,99396
2014-07-28T06:40:08.660Z,99399
2014-07-28T06:40:26.863Z,99390
2014-07-28T06:40:45.115Z,99396
2014-07-28T06:41:03.334Z,99393
2014-07-28T06:41:21.584Z,99402
2014-07-28T06:41:39.820Z,99396
2014-07-28T06:41:58.024Z,99396
2014-07-28T06:42:16.274Z,99399
2014-07-28T06:42:34.479Z,99390
2014-07-28T06:42:52.729Z,99396
2014-07-28T06:43:11.010Z,99399
2014-07-28T06:43:29.229Z,99396
2014-07-28T06:43:47.449Z,99399
2014-07-28T06:44:05.684Z,99393
2014-07-28T06:44:24.043Z,99382
2014-07-28T06:44:42.311Z,99402
2014-07-28T06:45:00.530Z,99399
2014-07-28T06:45:18.780Z,99393
2014-07-28T06:45:36.985Z,99402
2014-07-28T06:45:55.235Z,99399
2014-07-28T06:46:13.469Z,99402
2014-07-28T06:46:31.705Z,99393
2014-07-28T06:46:49.924Z,99393
2014-07-28T06:47:08.190Z,99393
2014-07-28T06:47:26.424Z,99402
2014-07-28T06:47:44.661Z,99399
2014-07-28T06:48:02.879Z,99399
2014-07-28T06:48:35.288Z,99379
2014-07-28T06:48:53.491Z,99385
2014-07-28T06:49:11.756Z,99396
2014-07-28T06:49:29.993Z,99399
2014-07-28T06:49:48.196Z,99396
2014-07-28T06:50:06.430Z,99396
2014-07-28T06:50:57.057Z,99399
2014-07-28T06:51:15.292Z,99396
2014-07-28T06:51:33.497Z,99387
2014-07-28T06:52:24.090Z,99385
2014-07-28T06:52:42.357Z,99387
2014-07-28T06:53:00.576Z,99390
2014-07-28T06:53:18.795Z,99390
2014-07-28T06:53:37.047Z,99387
2014-07-28T06:53:55.437Z,99393
2014-07-28T06:54:13.812Z,99393
2014-07-28T06:54:32.017Z,99390
2014-07-28T06:54:50.252Z,99387
2014-07-28T06:55:08.486Z,99396
2014-07-28T06:55:26.720Z,99396
2014-07-28T06:55:44.972Z,99393
2014-07-28T06:56:03.207Z,99393
2014-07-28T06:56:21.441Z,99399
2014-07-28T06:56:39.662Z,99393
2014-07-28T06:56:57.896Z,99390
2014-07-28T06:57:16.099Z,99396
2014-07-28T06:57:34.351Z,99396
2014-07-28T06:57:52.586Z,99399
2014-07-28T06:58:10.789Z,99405
2014-07-28T06:58:29.180Z,99416
2014-07-28T06:58:47.432Z,99399
2014-07-28T06:59:05.666Z,99399
2014-07-28T06:59:23.900Z,99399
2014-07-28T06:59:42.105Z,99396
2014-07-28T07:00:00.371Z,99402
2014-07-28T07:00:18.574Z,99402
2014-07-28T07:00:36.811Z,99402
2014-07-28T07:00:55.029Z,99402
2014-07-28T07:01:13.295Z,99396
2014-07-28T07:01:31.531Z,99393
2014-07-28T07:01:49.781Z,99399
2014-07-28T07:02:07.969Z,99402
2014-07-28T07:02:26.219Z,99393
2014-07-28T07:02:44.456Z,99393
2014-07-28T07:03:02.659Z,99405
2014-07-28T07:03:20.878Z,99402
2014-07-28T07:03:39.130Z,99402
2014-07-28T07:03:57.349Z,99399
2014-07-28T07:04:15.599Z,99396
2014-07-28T07:04:33.786Z,99402
2014-07-28T07:04:52.037Z,99396
2014-07-28T07:05:10.272Z,99396
2014-07-28T07:05:28.475Z,99390
2014-07-28T07:05:46.884Z,99405
2014-07-28T07:06:05.134Z,99402
2014-07-28T07:06:23.368Z,99402
2014-07-28T07:06:41.573Z,99393
2014-07-28T07:07:13.979Z,99396
2014-07-28T07:07:32.198Z,99393
2014-07-28T07:07:50.450Z,99393
2014-07-28T07:08:08.684Z,99396
2014-07-28T07:08:26.871Z,99402
2014-07-28T07:08:45.106Z,99393
2014-07-28T07:09:03.358Z,99390
2014-07-28T07:09:21.592Z,99393
2014-07-28T07:09:39.795Z,99396
2014-07-28T07:09:58.033Z,99402
2014-07-28T07:10:16.283Z,99393
2014-07-28T07:10:34.517Z,99390
2014-07-28T07:10:52.736Z,99393
2014-07-28T07:11:10.972Z,99390
2014-07-28T07:11:29.238Z,99390
2014-07-28T07:11:47.472Z,99390
2014-07-28T07:12:05.880Z,99390
2014-07-28T07:12:24.084Z,99390
2014-07-28T07:12:42.334Z,99387
2014-07-28T07:13:00.740Z,99399
2014-07-28T07:13:18.928Z,99390
2014-07-28T07:13:37.163Z,99387
2014-07-28T07:13:55.413Z,99402
2014-07-28T07:14:13.650Z,99396
2014-07-28T07:14:31.853Z,99387
2014-07-28T07:14:50.103Z,99387
2014-07-28T07:15:08.338Z,99390
2014-07-28T07:15:26.573Z,99396
2014-07-28T07:15:44.823Z,99387
2014-07-28T07:16:03.026Z,99387
2014-07-28T07:16:21.434Z,99387
2014-07-28T07:16:39.669Z,99370
2014-07-28T07:16:57.887Z,99379
2014-07-28T07:17:16.106Z,99387
2014-07-28T07:17:34.327Z,99376
2014-07-28T07:17:52.561Z,99373
2014-07-28T07:18:10.811Z,99379
2014-07-28T07:18:29.033Z,99382
2014-07-28T07:18:47.267Z,99387
2014-07-28T07:19:05.517Z,99382
2014-07-28T07:19:23.721Z,99382
2014-07-28T07:19:41.972Z,99384
2014-07-28T07:20:00.331Z,99373
2014-07-28T07:20:18.581Z,99379
2014-07-28T07:20:36.943Z,99382
2014-07-28T07:20:55.193Z,99376
2014-07-28T07:21:13.412Z,99373
2014-07-28T07:21:31.679Z,99379
2014-07-28T07:21:49.897Z,99370
2014-07-28T07:22:08.132Z,99376
2014-07-28T07:22:26.366Z,99376
2014-07-28T07:22:44.588Z,99376
2014-07-28T07:23:17.072Z,99364
2014-07-28T07:23:35.324Z,99376
2014-07-28T07:23:53.543Z,99370
2014-07-28T07:24:11.777Z,99358
2014-07-28T07:24:29.981Z,99373
2014-07-28T07:24:48.497Z,99364
2014-07-28T07:25:06.700Z,99373
2014-07-28T07:25:24.935Z,99376
2014-07-28T07:25:43.141Z,99370
2014-07-28T07:26:01.391Z,99370
2014-07-28T07:26:19.641Z,99370
2014-07-28T07:26:37.830Z,99364
2014-07-28T07:26:56.065Z,99376
2014-07-28T07:27:14.315Z,99376
2014-07-28T07:27:32.549Z,99376
2014-07-28T07:27:50.769Z,99367
2014-07-28T07:28:09.081Z,99370
2014-07-28T07:28:27.347Z,99367
2014-07-28T07:28:45.569Z,99376
2014-07-28T07:29:03.803Z,99370
2014-07-28T07:29:22.037Z,99373
2014-07-28T07:29:40.272Z,99361
2014-07-28T07:29:58.632Z,99373
2014-07-28T07:30:16.867Z,99364
2014-07-28T07:30:35.101Z,99361
2014-07-28T07:30:53.337Z,99364
2014-07-28T07:31:11.556Z,99355
2014-07-28T07:31:29.775Z,99367
2014-07-28T07:31:48.119Z,99364
2014-07-28T07:32:06.372Z,99370
2014-07-28T07:32:24.590Z,99370
2014-07-28T07:32:42.965Z,99364
2014-07-28T07:33:15.389Z,99364
2014-07-28T07:33:33.624Z,99367
2014-07-28T07:33:51.858Z,99367
2014-07-28T07:34:10.078Z,99370
2014-07-28T07:34:28.312Z,99364
2014-07-28T07:34:46.703Z,99364
2014-07-28T07:35:04.937Z,99364
2014-07-28T07:35:23.143Z,99361
2014-07-28T07:35:41.409Z,99358
2014-07-28T07:35:59.612Z,99373
2014-07-28T07:36:17.848Z,99364
2014-07-28T07:36:36.098Z,99370
2014-07-28T07:36:54.333Z,99358
2014-07-28T07:37:12.567Z,99352
2014-07-28T07:37:30.788Z,99364
2014-07-28T07:37:48.991Z,99358
2014-07-28T07:38:07.257Z,99352
2014-07-28T07:38:25.509Z,99364
2014-07-28T07:38:57.884Z,99364
2014-07-28T07:39:16.071Z,99364
2014-07-28T07:39:34.323Z,99355
2014-07-28T07:39:52.573Z,99361
2014-07-28T07:40:10.823Z,99352
2014-07-28T07:40:29.011Z,99364
2014-07-28T07:40:47.247Z,99361
2014-07-28T07:41:05.481Z,99361
2014-07-28T07:41:23.731Z,99373
2014-07-28T07:41:41.952Z,99361
2014-07-28T07:42:00.186Z,99355
2014-07-28T07:42:18.561Z,99364
2014-07-28T07:42:36.812Z,99355
2014-07-28T07:42:55.016Z,99364
2014-07-28T07:43:13.266Z,99367
2014-07-28T07:43:31.486Z,99367
2014-07-28T07:43:49.705Z,99361
2014-07-28T07:44:07.924Z,99364
2014-07-28T07:44:26.158Z,99361
2014-07-28T07:44:58.566Z,99373
2014-07-28T07:45:16.801Z,99358
2014-07-28T07:45:35.037Z,99367
2014-07-28T07:45:53.272Z,99355
2014-07-28T07:46:11.475Z,99367
2014-07-28T07:46:29.709Z,99370
2014-07-28T07:46:47.961Z,99361
2014-07-28T07:47:06.164Z,99361
2014-07-28T07:47:24.383Z,99358
2014-07-28T07:47:42.651Z,99361
2014-07-28T07:48:00.885Z,99361
2014-07-28T07:48:19.135Z,99361
2014-07-28T07:48:37.512Z,99349
2014-07-28T07:48:55.762Z,99370
2014-07-28T07:49:13.981Z,99358
2014-07-28T07:49:32.217Z,99364
2014-07-28T07:49:50.436Z,99361
2014-07-28T07:50:08.655Z,99358
2014-07-28T07:50:26.905Z,99358
2014-07-28T07:50:45.141Z,99358
2014-07-28T07:51:03.360Z,99370
2014-07-28T07:51:21.578Z,99361
2014-07-28T07:51:39.799Z,99367
2014-07-28T07:51:58.065Z,99364
2014-07-28T07:52:16.393Z,99352
2014-07-28T07:52:34.629Z,99361
2014-07-28T07:52:52.864Z,99346
2014-07-28T07:53:11.082Z,99361
2014-07-28T07:53:29.332Z,99355
2014-07-28T07:53:47.569Z,99352
2014-07-28T07:54:05.803Z,99358
2014-07-28T07:54:24.022Z,99367
2014-07-28T07:54:42.258Z,99367
2014-07-28T07:55:00.461Z,99361
2014-07-28T07:55:18.852Z,99358
2014-07-28T07:55:37.104Z,99358
2014-07-28T07:55:55.307Z,99358
2014-07-28T07:56:13.557Z,99361
2014-07-28T07:56:31.776Z,99367
2014-07-28T07:56:50.027Z,99358
2014-07-28T07:57:08.261Z,99358
2014-07-28T07:57:26.511Z,99358
2014-07-28T07:57:44.718Z,99352
2014-07-28T07:58:17.109Z,99355
2014-07-28T07:58:35.359Z,99352
2014-07-28T07:58:53.580Z,99352
2014-07-28T07:59:11.814Z,99355
2014-07-28T07:59:30.033Z,99358
2014-07-28T07:59:48.252Z,99364
2014-07-28T08:00:06.504Z,99352
2014-07-28T08:00:24.722Z,99358
2014-07-28T08:00:42.972Z,99361
2014-07-28T08:01:01.161Z,99367
2014-07-28T08:01:19.411Z,99361
2014-07-28T08:01:37.630Z,99358
2014-07-28T08:01:55.848Z,99361
2014-07-28T08:02:14.130Z,99355
2014-07-28T08:02:32.349Z,99373
2014-07-28T08:02:50.583Z,99358
2014-07-28T08:03:08.847Z,99367
2014-07-28T08:03:27.050Z,99358
2014-07-28T08:03:45.284Z,99352
2014-07-28T08:04:03.503Z,99358
2014-07-28T08:04:21.778Z,99364
2014-07-28T08:04:40.012Z,99355
2014-07-28T08:04:58.262Z,99364
2014-07-28T08:05:16.510Z,99358
2014-07-28T08:05:34.744Z,99361
2014-07-28T08:05:53.010Z,99352
2014-07-28T08:06:11.244Z,99346
2014-07-28T08:06:29.629Z,99358
2014-07-28T08:06:47.848Z,99364
2014-07-28T08:07:06.114Z,99358
2014-07-28T08:07:24.390Z,99358
2014-07-28T08:07:42.624Z,99364
2014-07-28T08:08:00.858Z,99355
2014-07-28T08:08:19.077Z,99358
2014-07-28T08:08:37.327Z,99352
2014-07-28T08:08:55.531Z,99358
2014-07-28T08:09:13.749Z,99361
2014-07-28T08:09:31.985Z,99358
2014-07-28T08:09:50.219Z,99364
2014-07-28T08:10:08.594Z,99355
2014-07-28T08:10:26.829Z,99367
2014-07-28T08:10:45.095Z,99355
2014-07-28T08:11:03.314Z,99361
2014-07-28T08:11:21.532Z,99364
2014-07-28T08:11:39.783Z,99349
2014-07-28T08:11:58.001Z,99358
2014-07-28T08:12:16.251Z,99355
2014-07-28T08:12:49.416Z,99361
2014-07-28T08:13:07.619Z,99349
2014-07-28T08:13:25.853Z,99355
2014-07-28T08:13:44.125Z,99355
2014-07-28T08:14:02.344Z,99358
2014-07-28T08:14:20.703Z,99349
2014-07-28T08:15:11.335Z,99361
2014-07-28T08:15:29.569Z,99355
2014-07-28T08:15:47.827Z,99355
2014-07-28T08:16:06.030Z,99361
2014-07-28T08:16:24.280Z,99352
2014-07-28T08:16:42.506Z,99355
2014-07-28T08:17:00.725Z,99355
2014-07-28T08:17:18.959Z,99361
2014-07-28T08:17:51.479Z,99349
2014-07-28T08:18:09.682Z,99355
2014-07-28T08:18:27.963Z,99352
2014-07-28T08:18:46.186Z,99361
2014-07-28T08:19:04.405Z,99349
2014-07-28T08:19:22.655Z,99349
2014-07-28T08:19:40.909Z,99361
2014-07-28T08:19:59.253Z,99349
2014-07-28T08:20:17.471Z,99349
2014-07-28T08:20:35.706Z,99358
2014-07-28T08:20:53.960Z,99355
2014-07-28T08:21:12.178Z,99343
2014-07-28T08:21:30.413Z,99346
2014-07-28T08:21:48.667Z,99349
2014-07-28T08:22:06.854Z,99346
2014-07-28T08:22:25.089Z,99355
2014-07-28T08:22:43.339Z,99355
2014-07-28T08:23:01.544Z,99358
2014-07-28T08:23:33.966Z,99346
2014-07-28T08:23:52.187Z,99343